Time;durP1;ratioP1;P1;durP2;ratioP2;P2;SDS_P1;SDS_P2;PMS_P1;PMS_P2;Temp;Humidity;BMP_temperature;BMP_pressure;BME280_temperature;BME280_humidity;BME280_pressure;Samples;Min_cycle;Max_cycle;Signal;HPM_P1;HPM_P2
2023/03/15 00:01:08;;;;;;;2.57;1.30;;;4.50;95.00;;;;;;4990151;28;20270;-87
2023/03/15 00:03:36;;;;;;;2.57;1.27;;;4.50;95.00;;;;;;4991400;28;20211;-88
2023/03/15 00:06:05;;;;;;;2.13;1.30;;;4.50;95.00;;;;;;4972997;28;20295;-88
2023/03/15 00:08:33;;;;;;;1.77;1.27;;;4.60;95.00;;;;;;4991676;28;20200;-88
2023/03/15 00:11:01;;;;;;;1.83;1.30;;;4.70;95.00;;;;;;4982852;28;20232;-88
2023/03/15 00:13:28;;;;;;;2.80;1.10;;;4.80;94.90;;;;;;4992013;28;20282;-88
2023/03/15 00:15:59;;;;;;;3.00;1.20;;;4.90;94.60;;;;;;4990340;28;20264;-91
2023/03/15 00:18:27;;;;;;;2.37;0.97;;;4.90;94.40;;;;;;4987539;28;20199;-90
2023/03/15 00:20:55;;;;;;;2.00;1.23;;;4.90;94.40;;;;;;4993578;28;20261;-91
2023/03/15 00:23:22;;;;;;;1.27;1.10;;;4.90;94.60;;;;;;4991974;28;20220;-90
2023/03/15 00:25:51;;;;;;;2.10;1.43;;;5.00;95.20;;;;;;4984551;28;20208;-91
2023/03/15 00:28:19;;;;;;;2.33;1.13;;;4.90;95.10;;;;;;4998286;28;20204;-90
2023/03/15 00:30:46;;;;;;;1.90;1.37;;;4.90;95.10;;;;;;4994053;28;20216;-91
2023/03/15 00:33:15;;;;;;;1.87;1.20;;;4.80;95.70;;;;;;4995051;28;20225;-91
2023/03/15 00:35:44;;;;;;;2.53;1.30;;;4.80;96.10;;;;;;4996151;28;20208;-91
2023/03/15 00:38:12;;;;;;;2.90;1.50;;;4.90;96.00;;;;;;4999290;28;20262;-92
2023/03/15 00:40:39;;;;;;;3.33;1.20;;;4.70;96.30;;;;;;4994924;28;20211;-90
2023/03/15 00:43:06;;;;;;;2.53;1.10;;;4.60;96.60;;;;;;4994800;28;20204;-90
2023/03/15 00:45:36;;;;;;;2.93;1.23;;;4.50;97.10;;;;;;4993698;28;20203;-90
2023/03/15 00:48:03;;;;;;;2.30;1.30;;;4.30;97.70;;;;;;4984720;28;20212;-90
2023/03/15 00:50:30;;;;;;;2.30;1.30;;;4.20;98.30;;;;;;4986293;28;20260;-90
2023/03/15 00:52:57;;;;;;;2.30;1.20;;;4.20;98.80;;;;;;4994683;28;20226;-90
2023/03/15 00:55:25;;;;;;;2.20;1.37;;;4.10;99.10;;;;;;5002016;28;20235;-90
2023/03/15 00:57:52;;;;;;;1.53;1.10;;;4.20;99.90;;;;;;4999693;28;20207;-90
2023/03/15 01:00:23;;;;;;;4.30;1.20;;;4.10;99.70;;;;;;5010669;28;20534;-90
2023/03/15 01:02:54;;;;;;;3.80;1.50;;;4.00;99.90;;;;;;5014643;28;20231;-89
2023/03/15 01:05:21;;;;;;;2.67;1.27;;;4.00;99.90;;;;;;5014061;28;20180;-90
2023/03/15 01:07:50;;;;;;;1.73;1.00;;;3.90;99.50;;;;;;5011353;28;20208;-89
2023/03/15 01:10:17;;;;;;;1.37;1.00;;;3.70;98.10;;;;;;5000793;28;20223;-90
2023/03/15 01:12:44;;;;;;;0.90;0.90;;;3.40;98.10;;;;;;4995636;28;20234;-89
2023/03/15 01:15:14;;;;;;;1.53;1.10;;;3.10;98.80;;;;;;4995182;28;20207;-89
2023/03/15 01:17:42;;;;;;;1.07;0.97;;;2.90;99.30;;;;;;4988126;28;20665;-89
2023/03/15 01:20:14;;;;;;;1.63;0.93;;;2.70;99.80;;;;;;4990341;28;20588;-89
2023/03/15 01:22:41;;;;;;;0.80;0.80;;;2.50;99.90;;;;;;4982928;28;20217;-88
2023/03/15 01:25:09;;;;;;;0.80;0.80;;;2.50;99.90;;;;;;4982496;28;20200;-90
2023/03/15 01:27:36;;;;;;;1.47;1.00;;;2.50;99.90;;;;;;4988228;28;20200;-89
2023/03/15 01:30:03;;;;;;;1.23;0.80;;;2.50;99.90;;;;;;4992532;28;20928;-90
2023/03/15 01:32:30;;;;;;;1.27;1.10;;;2.40;99.90;;;;;;4990221;28;20231;-88
2023/03/15 01:34:57;;;;;;;1.47;1.20;;;2.40;99.90;;;;;;4990170;28;20250;-90
2023/03/15 01:37:28;;;;;;;1.90;1.00;;;2.40;99.90;;;;;;4985156;28;20200;-90
2023/03/15 01:39:55;;;;;;;1.00;0.90;;;2.40;99.90;;;;;;4993916;28;20207;-89
2023/03/15 01:42:22;;;;;;;0.90;0.90;;;2.40;99.90;;;;;;4989921;28;20208;-90
2023/03/15 01:44:52;;;;;;;1.40;1.00;;;2.40;99.90;;;;;;4989690;28;20211;-90
2023/03/15 01:47:20;;;;;;;1.10;1.00;;;2.40;99.90;;;;;;4990877;28;20203;-89
2023/03/15 01:49:51;;;;;;;0.90;0.90;;;2.40;99.90;;;;;;4984327;28;20213;-90
2023/03/15 01:52:24;;;;;;;1.10;1.00;;;2.40;99.90;;;;;;4994852;28;20282;-89
2023/03/15 01:54:57;;;;;;;1.27;0.90;;;2.50;99.90;;;;;;4993882;28;20867;-89
2023/03/15 01:57:26;;;;;;;0.90;0.90;;;2.50;99.90;;;;;;4993008;28;20204;-90
2023/03/15 02:00:00;;;;;;;1.10;1.00;;;2.50;99.90;;;;;;4989429;28;20196;-89
2023/03/15 02:02:28;;;;;;;1.20;1.07;;;2.50;99.90;;;;;;4995140;28;20211;-90
2023/03/15 02:05:03;;;;;;;0.87;0.87;;;2.40;99.90;;;;;;4993303;28;20653;-89
2023/03/15 02:07:33;;;;;;;1.27;0.90;;;2.40;99.90;;;;;;4991281;28;20286;-90
2023/03/15 02:10:05;;;;;;;1.47;0.90;;;2.50;99.90;;;;;;4987970;28;20200;-90
2023/03/15 02:12:36;;;;;;;0.90;0.90;;;2.50;99.90;;;;;;4993119;28;20200;-90
2023/03/15 02:15:06;;;;;;;1.90;1.20;;;2.50;99.90;;;;;;4990991;28;20216;-90
2023/03/15 02:17:36;;;;;;;1.17;0.80;;;2.50;99.90;;;;;;4989620;28;20223;-89
2023/03/15 02:20:16;;;;;;;1.20;1.10;;;2.60;99.90;;;;;;4993782;28;20200;-89
2023/03/15 02:22:52;;;;;;;2.83;1.03;;;2.70;99.90;;;;;;4985436;28;20267;-90
2023/03/15 02:25:26;;;;;;;2.67;1.30;;;2.70;99.90;;;;;;4987041;28;20207;-90
2023/03/15 02:27:55;;;;;;;1.60;1.17;;;2.80;99.90;;;;;;4984460;28;20211;-91
2023/03/15 02:30:22;;;;;;;1.40;1.30;;;2.80;99.90;;;;;;4986115;28;20242;-90
2023/03/15 02:32:49;;;;;;;1.10;1.10;;;2.80;99.90;;;;;;4986680;28;20211;-90
2023/03/15 02:35:24;;;;;;;1.50;1.40;;;2.90;99.90;;;;;;4993068;28;20203;-89
2023/03/15 02:37:51;;;;;;;1.37;1.27;;;2.80;99.90;;;;;;4986365;28;20199;-89
2023/03/15 02:40:21;;;;;;;1.23;1.13;;;2.90;99.90;;;;;;4990086;28;20204;-90
2023/03/15 02:42:52;;;;;;;1.40;1.30;;;2.80;99.90;;;;;;4991116;28;20265;-90
2023/03/15 02:45:21;;;;;;;1.50;1.40;;;2.90;99.90;;;;;;4989083;28;20204;-90
2023/03/15 02:47:49;;;;;;;1.70;1.60;;;2.90;99.90;;;;;;4989688;28;20721;-89
2023/03/15 02:50:16;;;;;;;1.70;1.60;;;2.90;99.90;;;;;;4990044;28;20208;-90
2023/03/15 02:52:42;;;;;;;1.57;1.47;;;2.80;99.90;;;;;;4984988;28;20215;-90
2023/03/15 02:55:10;;;;;;;1.77;1.67;;;2.80;99.90;;;;;;4992613;28;20224;-89
2023/03/15 02:57:37;;;;;;;1.67;1.57;;;2.80;99.90;;;;;;4992084;28;20860;-90
2023/03/15 03:00:13;;;;;;;1.70;1.60;;;2.80;99.90;;;;;;4989948;28;20215;-90
2023/03/15 03:02:42;;;;;;;1.40;1.30;;;2.80;99.90;;;;;;4989664;28;20208;-90
2023/03/15 03:05:10;;;;;;;1.50;1.40;;;2.90;99.90;;;;;;4989057;28;20204;-90
2023/03/15 03:07:37;;;;;;;1.57;1.37;;;2.90;99.90;;;;;;4974595;28;20208;-89
2023/03/15 03:10:04;;;;;;;1.63;1.53;;;2.80;99.90;;;;;;4989569;28;20207;-90
2023/03/15 03:12:31;;;;;;;1.53;1.43;;;2.80;99.90;;;;;;4992740;28;20215;-90
2023/03/15 03:14:58;;;;;;;1.60;1.50;;;2.80;99.90;;;;;;4991902;28;20235;-91
2023/03/15 03:17:27;;;;;;;1.50;1.40;;;2.80;99.90;;;;;;4993706;28;20204;-90
2023/03/15 03:19:57;;;;;;;1.70;1.60;;;2.80;99.90;;;;;;4992183;28;20208;-87
2023/03/15 03:22:24;;;;;;;3.40;1.73;;;2.70;99.90;;;;;;4995713;28;20227;-90
2023/03/15 03:24:51;;;;;;;1.57;1.40;;;2.60;99.90;;;;;;4996774;28;20807;-89
2023/03/15 03:27:19;;;;;;;3.07;1.50;;;2.50;99.90;;;;;;4988402;28;20200;-89
2023/03/15 03:29:46;;;;;;;2.67;1.47;;;2.40;99.90;;;;;;4978560;28;20242;-89
2023/03/15 03:32:13;;;;;;;2.43;1.60;;;2.20;99.90;;;;;;4990950;28;20207;-86
2023/03/15 03:34:40;;;;;;;1.70;1.30;;;2.10;99.90;;;;;;4987416;28;20225;-89
2023/03/15 03:37:11;;;;;;;2.40;1.60;;;2.10;99.90;;;;;;4972740;28;20205;-89
2023/03/15 03:39:37;;;;;;;2.80;1.43;;;2.00;99.90;;;;;;4987372;28;20195;-89
2023/03/15 03:42:06;;;;;;;2.37;1.77;;;2.10;99.90;;;;;;4983323;28;20209;-89
2023/03/15 03:44:33;;;;;;;1.70;1.60;;;2.10;99.90;;;;;;4994533;28;20195;-89
2023/03/15 03:47:00;;;;;;;2.20;1.70;;;2.10;99.90;;;;;;4990510;28;20595;-89
2023/03/15 03:49:27;;;;;;;1.47;1.37;;;2.20;99.90;;;;;;4982527;28;20204;-88
2023/03/15 03:51:54;;;;;;;3.33;2.20;;;2.10;99.90;;;;;;4991325;28;20208;-89
2023/03/15 03:54:23;;;;;;;2.97;1.93;;;2.00;99.90;;;;;;4987536;28;20304;-89
2023/03/15 03:56:50;;;;;;;7.03;2.03;;;2.00;99.90;;;;;;4984573;28;20214;-88
2023/03/15 03:59:17;;;;;;;3.43;2.03;;;2.00;99.90;;;;;;4991513;28;20212;-89
2023/03/15 04:01:44;;;;;;;2.43;2.03;;;2.00;99.90;;;;;;4987515;28;20207;-89
2023/03/15 04:04:12;;;;;;;3.47;1.83;;;2.10;99.90;;;;;;4990000;28;20660;-89
2023/03/15 04:06:44;;;;;;;2.40;1.60;;;2.20;99.90;;;;;;4990650;28;20200;-89
2023/03/15 04:09:11;;;;;;;4.30;1.80;;;2.10;99.90;;;;;;4992298;28;20203;-88
2023/03/15 04:11:41;;;;;;;3.97;1.90;;;2.10;99.90;;;;;;4988488;28;20200;-88
2023/03/15 04:14:09;;;;;;;1.97;1.73;;;2.10;99.90;;;;;;4986294;28;20696;-88
2023/03/15 04:16:36;;;;;;;2.23;1.73;;;2.10;99.90;;;;;;4994541;28;20267;-89
2023/03/15 04:19:03;;;;;;;4.27;2.07;;;2.00;99.90;;;;;;4990361;28;20204;-90
2023/03/15 04:21:31;;;;;;;3.70;1.77;;;2.00;99.90;;;;;;5010140;28;20199;-89
2023/03/15 04:23:58;;;;;;;4.33;1.90;;;1.90;99.90;;;;;;5012796;28;20187;-88
2023/03/15 04:26:25;;;;;;;4.07;1.80;;;1.90;99.90;;;;;;4997651;28;20238;-89
2023/03/15 04:28:55;;;;;;;2.30;1.80;;;1.90;99.90;;;;;;4991254;28;20220;-90
2023/03/15 04:31:25;;;;;;;2.80;2.30;;;1.90;99.90;;;;;;4989257;28;20219;-88
2023/03/15 04:33:52;;;;;;;2.03;1.70;;;1.90;99.90;;;;;;4990579;28;20217;-88
2023/03/15 04:36:19;;;;;;;3.10;2.10;;;1.90;99.90;;;;;;4996305;28;20200;-90
2023/03/15 04:38:49;;;;;;;3.20;1.90;;;1.90;99.90;;;;;;5005372;28;20203;-89
2023/03/15 04:41:17;;;;;;;2.93;1.70;;;1.90;99.90;;;;;;4996659;28;20207;-88
2023/03/15 04:43:45;;;;;;;2.00;1.87;;;1.90;99.90;;;;;;5002074;28;20232;-89
2023/03/15 04:46:13;;;;;;;2.10;1.90;;;1.90;99.90;;;;;;5000498;28;20212;-89
2023/03/15 04:48:40;;;;;;;3.40;2.13;;;2.00;99.90;;;;;;5000361;28;20200;-90
2023/03/15 04:51:07;;;;;;;2.73;2.00;;;1.90;99.90;;;;;;5009275;28;20204;-87
2023/03/15 04:53:34;;;;;;;4.87;2.13;;;1.90;99.90;;;;;;5015378;28;20196;-88
2023/03/15 04:56:01;;;;;;;2.53;1.70;;;1.90;99.90;;;;;;5005635;28;20630;-88
2023/03/15 04:58:28;;;;;;;3.90;2.20;;;1.90;99.90;;;;;;4997701;28;20207;-88
2023/03/15 05:00:55;;;;;;;6.83;2.33;;;2.00;99.90;;;;;;4995442;28;20644;-88
2023/03/15 05:03:23;;;;;;;4.67;2.10;;;2.00;99.90;;;;;;4998931;28;20211;-88
2023/03/15 05:05:50;;;;;;;3.97;2.60;;;2.00;99.90;;;;;;4995336;28;20215;-87
2023/03/15 05:08:17;;;;;;;2.40;1.83;;;1.90;99.90;;;;;;4988443;28;20204;-87
2023/03/15 05:10:45;;;;;;;4.20;2.23;;;1.80;99.60;;;;;;4992616;28;20203;-87
2023/03/15 05:13:12;;;;;;;3.07;2.13;;;1.90;99.90;;;;;;4990095;28;20197;-88
2023/03/15 05:15:39;;;;;;;4.10;2.20;;;1.90;99.90;;;;;;4987640;28;20639;-85
2023/03/15 05:18:08;;;;;;;3.93;2.40;;;1.80;99.90;;;;;;4991293;28;20243;-86
2023/03/15 05:20:36;;;;;;;4.37;2.37;;;1.70;99.90;;;;;;4990169;28;20207;-86
2023/03/15 05:23:03;;;;;;;4.17;1.80;;;1.60;99.90;;;;;;4994452;28;20220;-86
2023/03/15 05:25:31;;;;;;;5.50;2.40;;;1.60;99.90;;;;;;4991757;28;20577;-86
2023/03/15 05:27:57;;;;;;;5.57;2.83;;;1.50;99.90;;;;;;4993561;28;20200;-85
2023/03/15 05:30:26;;;;;;;4.90;2.30;;;1.50;99.90;;;;;;4995508;28;20192;-86
2023/03/15 05:32:52;;;;;;;3.93;2.10;;;1.40;99.90;;;;;;4986063;28;20285;-86
2023/03/15 05:35:21;;;;;;;5.13;2.20;;;1.40;99.90;;;;;;4996132;28;20267;-87
2023/03/15 05:40:30;;;;;;;5.07;2.33;;;1.50;99.90;;;;;;4989219;28;20212;-86
2023/03/15 05:42:57;;;;;;;4.23;2.60;;;1.50;99.90;;;;;;4992317;28;20204;-86
2023/03/15 05:45:25;;;;;;;6.33;2.17;;;1.50;99.90;;;;;;4992499;28;20200;-90
2023/03/15 05:47:52;;;;;;;3.27;2.10;;;1.50;99.90;;;;;;4991059;28;20232;-86
2023/03/15 05:50:19;;;;;;;5.10;2.67;;;1.50;99.90;;;;;;4991335;28;20281;-87
2023/03/15 05:52:46;;;;;;;5.10;2.30;;;1.50;99.90;;;;;;4992921;28;20235;-86
2023/03/15 05:55:16;;;;;;;3.97;2.40;;;1.50;99.90;;;;;;4995287;28;20216;-90
2023/03/15 05:57:43;;;;;;;5.07;2.70;;;1.50;99.90;;;;;;4991196;28;20204;-85
2023/03/15 06:00:13;;;;;;;10.47;2.90;;;1.60;99.90;;;;;;4991847;28;20613;-88
2023/03/15 06:02:40;;;;;;;3.17;2.40;;;1.60;99.90;;;;;;4989748;28;20255;-86
2023/03/15 06:05:08;;;;;;;4.80;2.73;;;1.70;99.90;;;;;;4989925;28;20274;-87
2023/03/15 06:07:36;;;;;;;3.87;2.60;;;1.70;99.90;;;;;;4988118;28;20200;-87
2023/03/15 06:10:03;;;;;;;4.90;2.63;;;1.70;99.90;;;;;;4993865;28;20258;-88
2023/03/15 06:12:34;;;;;;;5.13;2.80;;;1.70;99.90;;;;;;4982331;28;20235;-87
2023/03/15 06:15:02;;;;;;;9.07;3.17;;;1.70;99.90;;;;;;4991227;28;20258;-87
2023/03/15 06:17:29;;;;;;;6.97;2.80;;;1.60;99.90;;;;;;4986149;28;20672;-86
2023/03/15 06:19:56;;;;;;;6.33;2.83;;;1.60;99.90;;;;;;4986823;28;20209;-87
2023/03/15 06:22:23;;;;;;;9.10;3.07;;;1.60;99.90;;;;;;4989448;28;20223;-87
2023/03/15 06:24:50;;;;;;;5.63;2.80;;;1.60;99.90;;;;;;4997680;28;20636;-86
2023/03/15 06:27:20;;;;;;;4.57;2.93;;;1.60;99.90;;;;;;4992118;28;20211;-87
2023/03/15 06:29:49;;;;;;;5.37;2.93;;;1.60;99.90;;;;;;4986908;28;20208;-87
2023/03/15 06:32:16;;;;;;;8.20;3.10;;;1.60;99.90;;;;;;4992937;28;20231;-88
2023/03/15 06:34:43;;;;;;;10.77;3.40;;;1.60;99.90;;;;;;4996973;28;20231;-91
2023/03/15 06:37:12;;;;;;;5.70;3.37;;;1.70;99.90;;;;;;4994041;28;20688;-85
2023/03/15 06:39:39;;;;;;;6.83;2.90;;;1.80;99.90;;;;;;4987492;28;20278;-86
2023/03/15 06:42:07;;;;;;;7.27;3.20;;;1.90;99.70;;;;;;4992038;28;20204;-87
2023/03/15 06:44:34;;;;;;;5.37;3.40;;;1.90;99.60;;;;;;4995773;28;20176;-88
2023/03/15 06:47:03;;;;;;;6.00;3.33;;;1.90;99.60;;;;;;4990779;28;20223;-90
2023/03/15 06:49:34;;;;;;;6.93;3.50;;;2.00;99.60;;;;;;4995106;28;20234;-87
2023/03/15 06:52:01;;;;;;;6.53;3.73;;;2.00;99.50;;;;;;4990531;28;20666;-87
2023/03/15 06:54:28;;;;;;;7.77;3.80;;;2.10;99.00;;;;;;4984308;28;20221;-88
2023/03/15 06:56:55;;;;;;;7.37;3.93;;;2.10;98.90;;;;;;4986108;28;20208;-87
2023/03/15 06:59:23;;;;;;;5.93;4.03;;;2.30;98.80;;;;;;4991293;28;20223;-88
2023/03/15 07:01:50;;;;;;;7.30;3.87;;;2.40;98.60;;;;;;4992298;28;20240;-88
2023/03/15 07:04:19;;;;;;;5.83;3.73;;;2.40;98.30;;;;;;4988482;28;20215;-89
2023/03/15 07:06:46;;;;;;;7.60;4.10;;;2.50;98.30;;;;;;4982686;28;20200;-88
2023/03/15 07:09:13;;;;;;;7.57;4.00;;;2.50;98.20;;;;;;4987596;28;20732;-88
2023/03/15 07:11:40;;;;;;;6.73;4.43;;;2.60;97.90;;;;;;5008079;28;20211;-88
2023/03/15 07:14:06;;;;;;;6.63;4.30;;;2.70;97.80;;;;;;4998249;28;20205;-88
2023/03/15 07:16:34;;;;;;;8.73;4.80;;;2.80;97.90;;;;;;4987287;28;20608;-88
2023/03/15 07:19:01;;;;;;;9.10;4.80;;;2.90;96.70;;;;;;4989366;28;20207;-89
2023/03/15 07:21:30;;;;;;;7.20;5.10;;;3.00;96.70;;;;;;4988617;28;20205;-88
2023/03/15 07:23:56;;;;;;;10.27;5.13;;;2.90;96.60;;;;;;4987321;28;20208;-88
2023/03/15 07:26:24;;;;;;;8.67;5.23;;;3.00;96.80;;;;;;4987523;28;21503;-90
2023/03/15 07:28:52;;;;;;;8.53;4.73;;;3.10;96.30;;;;;;4986212;28;20207;-88
2023/03/15 07:31:18;;;;;;;7.30;4.90;;;3.20;95.40;;;;;;4987264;28;20201;-88
2023/03/15 07:33:45;;;;;;;7.50;5.20;;;3.30;95.00;;;;;;4985878;28;20225;-88
2023/03/15 07:36:13;;;;;;;9.60;5.40;;;3.40;94.70;;;;;;4997060;28;20296;-90
2023/03/15 07:38:41;;;;;;;5.83;4.70;;;3.40;94.00;;;;;;5005408;28;20193;-91
2023/03/15 07:41:08;;;;;;;8.40;4.90;;;3.40;94.10;;;;;;4984083;28;20180;-86
2023/03/15 07:43:35;;;;;;;7.50;5.17;;;3.40;94.70;;;;;;5007414;28;20550;-91
2023/03/15 07:46:02;;;;;;;10.80;6.00;;;3.40;94.70;;;;;;4994564;28;20661;-91
2023/03/15 07:48:30;;;;;;;10.40;5.63;;;3.30;94.70;;;;;;4986410;28;20204;-90
2023/03/15 07:50:57;;;;;;;10.33;6.47;;;3.20;93.90;;;;;;4982753;28;21587;-83
2023/03/15 07:53:24;;;;;;;11.23;5.03;;;3.20;94.70;;;;;;4986758;28;20234;-86
2023/03/15 07:55:53;;;;;;;13.60;5.03;;;3.40;94.70;;;;;;4990631;28;20258;-86
2023/03/15 07:58:20;;;;;;;6.93;5.00;;;3.40;93.90;;;;;;4983786;28;20236;-86
2023/03/15 08:00:47;;;;;;;11.33;5.47;;;3.50;93.80;;;;;;4981567;28;20212;-87
2023/03/15 08:03:13;;;;;;;8.27;5.50;;;3.70;93.90;;;;;;4983371;28;20192;-86
2023/03/15 08:05:40;;;;;;;11.43;5.50;;;4.00;93.30;;;;;;4987084;28;20217;-86
2023/03/15 08:08:07;;;;;;;10.33;5.57;;;4.20;93.00;;;;;;4991370;28;20196;-88
2023/03/15 08:10:34;;;;;;;8.73;5.23;;;4.20;91.80;;;;;;4978764;28;20226;-87
2023/03/15 08:15:46;;;;;;;9.33;5.67;;;4.40;91.40;;;;;;4991193;28;20223;-90
2023/03/15 08:18:14;;;;;;;9.70;5.37;;;4.50;91.60;;;;;;4972721;28;20637;-90
2023/03/15 08:20:40;;;;;;;8.97;5.07;;;4.50;91.20;;;;;;4988355;28;20200;-90
2023/03/15 08:23:08;;;;;;;9.10;5.30;;;4.70;90.30;;;;;;4985803;28;20220;-90
2023/03/15 08:25:39;;;;;;;10.60;5.23;;;4.80;90.10;;;;;;4984426;28;20196;-89
2023/03/15 08:28:08;;;;;;;9.53;5.30;;;5.00;90.00;;;;;;4989325;28;20192;-90
2023/03/15 08:30:35;;;;;;;7.03;5.33;;;5.20;90.30;;;;;;4983922;28;20192;-89
2023/03/15 08:33:02;;;;;;;6.33;4.50;;;5.50;89.30;;;;;;4988242;28;20211;-90
2023/03/15 08:35:29;;;;;;;7.53;4.57;;;5.50;82.90;;;;;;4984776;28;20220;-89
2023/03/15 08:37:56;;;;;;;13.37;5.53;;;5.40;81.20;;;;;;4983016;28;20227;-91
2023/03/15 08:40:26;;;;;;;9.00;4.70;;;5.20;81.40;;;;;;4989038;28;20687;-90
2023/03/15 08:42:53;;;;;;;9.03;4.27;;;5.10;80.50;;;;;;4983388;28;20211;-89
2023/03/15 08:45:22;;;;;;;8.83;4.10;;;5.00;82.00;;;;;;4981128;28;20728;-87
2023/03/15 08:47:49;;;;;;;9.07;4.30;;;4.90;79.50;;;;;;4998630;28;20208;-89
2023/03/15 08:50:18;;;;;;;7.20;4.03;;;4.90;83.90;;;;;;4997650;28;20242;-88
2023/03/15 08:52:46;;;;;;;8.87;4.27;;;5.30;84.00;;;;;;4994112;28;20204;-91
2023/03/15 08:57:53;;;;;;;9.70;4.37;;;6.10;78.60;;;;;;4987697;28;20246;-93
2023/03/15 09:00:23;;;;;;;8.10;4.68;;;6.50;73.50;;;;;;4989677;28;20211;-89
2023/03/15 09:02:52;;;;;;;7.57;3.95;;;6.90;63.00;;;;;;4984687;28;20199;-91
2023/03/15 09:05:20;;;;;;;6.20;3.80;;;7.60;59.50;;;;;;4988733;28;20227;-89
2023/03/15 09:07:47;;;;;;;8.73;3.63;;;7.80;46.50;;;;;;4983270;28;20748;-89
2023/03/15 09:10:16;;;;;;;9.15;3.45;;;7.80;45.40;;;;;;4978025;28;20232;-88
2023/03/15 09:12:46;;;;;;;11.07;3.58;;;7.70;39.30;;;;;;4980599;28;20860;-91
2023/03/15 09:15:14;;;;;;;8.88;3.75;;;7.80;41.30;;;;;;4983898;28;20239;-90
2023/03/15 09:17:43;;;;;;;7.40;3.85;;;7.60;37.70;;;;;;4993751;28;20196;-90
2023/03/15 09:20:17;;;;;;;8.30;3.67;;;7.30;37.00;;;;;;4983011;28;20212;-89
2023/03/15 09:22:50;;;;;;;7.43;3.60;;;7.20;39.00;;;;;;4986721;28;20306;-89
2023/03/15 09:25:17;;;;;;;9.60;4.53;;;6.80;41.40;;;;;;4982076;28;20216;-90
2023/03/15 09:27:46;;;;;;;8.45;3.38;;;6.90;40.50;;;;;;4992072;28;20203;-91
2023/03/15 09:30:14;;;;;;;9.07;3.95;;;7.10;39.80;;;;;;4988285;28;20211;-93
2023/03/15 09:32:50;;;;;;;5.90;3.30;;;7.10;39.90;;;;;;4985085;28;20204;-91
2023/03/15 09:35:19;;;;;;;8.10;3.55;;;7.30;35.30;;;;;;4986962;28;20234;-91
2023/03/15 09:37:49;;;;;;;9.15;3.67;;;7.00;36.40;;;;;;4988239;28;20291;-93
2023/03/15 09:49:14;;;;;;;7.28;3.47;;;6.20;38.00;;;;;;4967175;28;20216;-93
2023/03/15 09:57:18;;;;;;;6.13;3.40;;;7.20;35.70;;;;;;4988685;28;20743;-91
2023/03/15 10:00:10;;;;;;;9.73;3.58;;;7.20;35.80;;;;;;4987304;28;20208;-92
2023/03/15 10:02:42;;;;;;;8.30;4.20;;;7.10;31.20;;;;;;4995426;28;20200;-92
2023/03/15 10:07:55;;;;;;;8.77;4.40;;;6.60;34.40;;;;;;4989784;28;20200;-91
2023/03/15 10:13:35;;;;;;;5.25;3.00;;;6.50;35.80;;;;;;4974766;28;20653;-91
2023/03/15 10:16:11;;;;;;;4.72;2.90;;;7.40;32.50;;;;;;4964785;28;20234;-92
2023/03/15 10:28:04;;;;;;;4.40;2.83;;;9.00;25.30;;;;;;4995120;28;20724;-92
2023/03/15 10:46:39;;;;;;;7.10;2.58;;;7.50;25.10;;;;;;4993588;28;20204;-92
2023/03/15 10:51:52;;;;;;;5.80;2.35;;;7.20;26.40;;;;;;4978082;28;20213;-92
2023/03/15 11:02:38;;;;;;;8.70;2.42;;;7.10;27.90;;;;;;4986485;28;20200;-91
2023/03/15 11:05:16;;;;;;;4.72;2.60;;;6.90;26.60;;;;;;4992349;28;20667;-93
2023/03/15 11:13:35;;;;;;;5.95;2.13;;;6.30;25.70;;;;;;4984544;28;21056;-94
2023/03/15 11:16:22;;;;;;;3.35;2.08;;;6.20;27.00;;;;;;4996304;28;20231;-95
2023/03/15 11:18:52;;;;;;;3.90;2.10;;;6.10;27.30;;;;;;5003472;28;20208;-95
2023/03/15 11:21:20;;;;;;;6.82;2.40;;;5.90;26.60;;;;;;4999977;28;20192;-92
2023/03/15 11:26:35;;;;;;;3.47;1.53;;;5.90;24.50;;;;;;4995106;28;20208;-91
2023/03/15 11:29:06;;;;;;;2.33;1.50;;;6.00;23.90;;;;;;4998687;28;20222;-93
2023/03/15 11:31:35;;;;;;;5.50;1.63;;;6.10;24.80;;;;;;5000762;28;20210;-93
2023/03/15 11:39:44;;;;;;;4.78;1.80;;;7.00;22.90;;;;;;4989064;28;20695;-92
2023/03/15 11:42:18;;;;;;;3.05;1.77;;;7.30;24.30;;;;;;4988139;28;20215;-94
2023/03/15 11:47:56;;;;;;;2.08;1.40;;;8.00;23.60;;;;;;4987358;28;20218;-89
2023/03/15 11:50:23;;;;;;;2.30;1.40;;;7.90;19.60;;;;;;4983391;28;20207;-90
2023/03/15 11:52:51;;;;;;;2.92;1.48;;;7.80;21.20;;;;;;5006179;28;20299;-91
2023/03/15 11:55:23;;;;;;;1.27;1.15;;;7.90;20.00;;;;;;4990685;28;20201;-93
2023/03/15 12:23:48;;;;;;;2.20;1.20;;;8.50;18.70;;;;;;5357168;23;20323;-96
2023/03/15 13:01:42;;;;;;;2.70;1.10;;;7.50;21.00;;;;;;4974325;28;20211;-94
2023/03/15 13:51:48;;;;;;;2.25;0.95;;;8.30;20.00;;;;;;4975492;28;20310;-93
2023/03/15 14:16:41;;;;;;;2.15;1.35;;;7.40;22.40;;;;;;4993646;28;20708;-91
2023/03/15 14:19:16;;;;;;;2.25;1.23;;;7.50;20.60;;;;;;4998606;28;20210;-93
2023/03/15 14:30:00;;;;;;;2.20;1.30;;;7.50;22.90;;;;;;4963501;28;20712;-92
2023/03/15 14:32:30;;;;;;;1.52;1.13;;;7.40;22.70;;;;;;4980011;28;20227;-92
2023/03/15 14:43:30;;;;;;;1.35;1.02;;;7.00;22.90;;;;;;4994864;28;20196;-92
2023/03/15 14:48:38;;;;;;;2.45;1.20;;;7.00;25.70;;;;;;4979253;28;20243;-92
2023/03/15 14:57:10;;;;;;;2.67;1.23;;;7.10;25.60;;;;;;4980509;28;20273;-92
2023/03/15 14:59:37;;;;;;;4.43;1.73;;;7.10;23.60;;;;;;4983622;28;20302;-96
2023/03/15 15:02:05;;;;;;;2.60;1.30;;;7.10;25.80;;;;;;5003322;28;20208;-96
2023/03/15 15:13:01;;;;;;;2.55;1.40;;;6.90;24.70;;;;;;5023843;28;20281;-95
2023/03/15 15:18:08;;;;;;;2.35;1.58;;;6.90;25.40;;;;;;5007631;28;20226;-94
2023/03/15 15:37:58;;;;;;;2.10;1.55;;;6.80;22.70;;;;;;4990254;28;20216;-91
2023/03/15 15:40:28;;;;;;;5.07;1.50;;;6.70;22.60;;;;;;5011970;28;20243;-91
2023/03/15 15:46:01;;;;;;;5.15;1.70;;;6.70;22.60;;;;;;5014834;28;20217;-93
2023/03/15 15:48:32;;;;;;;2.97;1.20;;;6.70;22.90;;;;;;5017074;28;20631;-93
2023/03/15 15:54:26;;;;;;;5.03;1.65;;;6.70;24.50;;;;;;5018720;28;20225;-92
2023/03/15 15:57:13;;;;;;;2.55;1.40;;;6.80;22.70;;;;;;4996668;28;20223;-89
2023/03/15 15:59:41;;;;;;;2.88;1.35;;;6.80;23.00;;;;;;5014150;28;20198;-92
2023/03/15 16:10:59;;;;;;;2.23;1.40;;;6.70;23.60;;;;;;4945651;28;20216;-93
2023/03/15 16:13:26;;;;;;;2.97;1.40;;;6.60;22.50;;;;;;4976309;28;20228;-91
2023/03/15 16:15:55;;;;;;;5.97;1.80;;;6.50;22.50;;;;;;4972129;28;20383;-91
2023/03/15 16:18:22;;;;;;;4.30;1.73;;;6.40;30.00;;;;;;4967004;28;20217;-91
2023/03/15 16:20:49;;;;;;;3.27;1.87;;;6.20;32.20;;;;;;4970149;28;20216;-90
2023/03/15 16:26:03;;;;;;;2.63;1.70;;;6.30;35.80;;;;;;4953646;28;20581;-91
2023/03/15 16:28:31;;;;;;;4.43;1.90;;;6.20;38.80;;;;;;4955657;28;20272;-89
2023/03/15 16:33:50;;;;;;;3.63;2.03;;;5.80;45.00;;;;;;4953010;29;20268;-90
2023/03/15 16:36:18;;;;;;;2.93;1.77;;;5.80;52.40;;;;;;4952340;29;20205;-90
2023/03/15 16:41:26;;;;;;;3.90;2.20;;;5.50;62.30;;;;;;4969792;28;20217;-89
2023/03/15 16:43:53;;;;;;;5.60;2.23;;;5.40;68.90;;;;;;4973873;28;20273;-91
2023/03/15 16:46:22;;;;;;;4.73;1.73;;;5.30;70.10;;;;;;4953702;29;20264;-88
2023/03/15 16:48:50;;;;;;;2.47;1.60;;;5.30;73.00;;;;;;4951281;29;20209;-89
2023/03/15 16:51:17;;;;;;;4.63;2.23;;;5.40;70.10;;;;;;4957874;28;20201;-88
2023/03/15 16:59:26;;;;;;;4.43;1.90;;;5.20;70.00;;;;;;4949593;29;20233;-88
2023/03/15 17:01:55;;;;;;;3.33;1.87;;;5.10;70.00;;;;;;4943454;29;20209;-86
2023/03/15 17:07:13;;;;;;;4.30;1.87;;;5.10;69.80;;;;;;4950872;29;20198;-84
2023/03/15 17:12:24;;;;;;;3.83;1.90;;;5.20;70.10;;;;;;4944688;29;20289;-88
2023/03/15 17:14:54;;;;;;;4.43;2.10;;;5.20;67.20;;;;;;4947765;29;20217;-87
2023/03/15 17:17:28;;;;;;;3.50;1.70;;;5.20;65.80;;;;;;4945820;29;20225;-87
2023/03/15 17:19:55;;;;;;;4.37;1.90;;;5.20;70.00;;;;;;4951400;29;20225;-86
2023/03/15 17:22:22;;;;;;;9.07;2.17;;;5.00;69.80;;;;;;4939757;29;20221;-89
2023/03/15 17:24:49;;;;;;;3.97;2.33;;;5.00;69.80;;;;;;4947831;28;20209;-88
2023/03/15 17:27:30;;;;;;;2.43;1.60;;;5.10;69.90;;;;;;4952715;29;20228;-88
2023/03/15 17:29:57;;;;;;;9.53;2.00;;;5.20;70.00;;;;;;4959530;29;20210;-90
2023/03/15 17:32:27;;;;;;;4.47;1.90;;;5.10;70.00;;;;;;4973465;28;20190;-92
2023/03/15 17:34:58;;;;;;;4.23;1.90;;;5.10;70.00;;;;;;4955120;28;20225;-89
2023/03/15 17:37:26;;;;;;;4.43;1.97;;;5.20;70.00;;;;;;4959987;28;20238;-90
2023/03/15 17:39:54;;;;;;;3.57;1.90;;;5.20;70.00;;;;;;4960521;29;20387;-91
2023/03/15 17:42:21;;;;;;;2.33;1.90;;;5.20;70.00;;;;;;4934460;29;20288;-91
2023/03/15 17:47:21;;;;;;;2.93;1.80;;;5.20;70.20;;;;;;5186496;23;20236;-88
2023/03/15 17:49:50;;;;;;;5.83;2.07;;;5.20;70.00;;;;;;4994779;28;20446;-86
2023/03/15 17:52:17;;;;;;;3.27;1.97;;;5.10;70.00;;;;;;4998546;28;20890;-90
2023/03/15 17:54:44;;;;;;;5.53;2.10;;;5.00;69.80;;;;;;4989216;28;20343;-92
2023/03/15 17:57:12;;;;;;;2.70;2.17;;;5.10;71.80;;;;;;4986222;28;20231;-91
2023/03/15 17:59:39;;;;;;;7.53;2.27;;;5.10;73.60;;;;;;4995370;28;20207;-90
2023/03/15 18:02:14;;;;;;;3.03;2.30;;;5.10;73.70;;;;;;4993862;28;20597;-90
2023/03/15 18:04:41;;;;;;;3.53;2.10;;;5.20;74.50;;;;;;4993567;28;20207;-90
2023/03/15 18:07:10;;;;;;;6.57;2.07;;;5.00;75.00;;;;;;4994728;28;20294;-88
2023/03/15 18:09:37;;;;;;;5.23;2.10;;;4.90;75.80;;;;;;4991427;28;20210;-88